sensor_id;sensor_type;location;lat;lon;timestamp;temperature;humidity
42201;DHT22;27869;51.442;7.540;2023-07-20T00:00:06;16.00;99.90
42201;DHT22;27869;51.442;7.540;2023-07-20T00:02:34;16.00;99.90
42201;DHT22;27869;51.442;7.540;2023-07-20T00:05:00;16.00;99.90
42201;DHT22;27869;51.442;7.540;2023-07-20T00:07:27;16.00;99.90
42201;DHT22;27869;51.442;7.540;2023-07-20T00:09:55;15.90;99.90
42201;DHT22;27869;51.442;7.540;2023-07-20T00:12:23;15.90;99.90
42201;DHT22;27869;51.442;7.540;2023-07-20T00:14:50;15.90;99.90
42201;DHT22;27869;51.442;7.540;2023-07-20T00:17:19;15.90;99.90
42201;DHT22;27869;51.442;7.540;2023-07-20T00:19:46;15.90;99.90
42201;DHT22;27869;51.442;7.540;2023-07-20T00:22:13;15.90;99.90
42201;DHT22;27869;51.442;7.540;2023-07-20T00:24:40;15.80;99.90
42201;DHT22;27869;51.442;7.540;2023-07-20T00:27:08;15.80;99.90
42201;DHT22;27869;51.442;7.540;2023-07-20T00:29:35;15.80;99.90
42201;DHT22;27869;51.442;7.540;2023-07-20T00:32:02;15.80;99.90
42201;DHT22;27869;51.442;7.540;2023-07-20T00:34:30;15.80;99.90
42201;DHT22;27869;51.442;7.540;2023-07-20T00:36:57;15.80;99.90
42201;DHT22;27869;51.442;7.540;2023-07-20T00:39:24;15.80;99.90
42201;DHT22;27869;51.442;7.540;2023-07-20T00:41:50;15.80;99.90
42201;DHT22;27869;51.442;7.540;2023-07-20T00:44:19;15.80;99.90
42201;DHT22;27869;51.442;7.540;2023-07-20T00:46:46;15.80;99.90
42201;DHT22;27869;51.442;7.540;2023-07-20T00:49:14;15.80;99.90
42201;DHT22;27869;51.442;7.540;2023-07-20T00:51:41;15.70;99.90
42201;DHT22;27869;51.442;7.540;2023-07-20T00:54:11;15.70;99.90
42201;DHT22;27869;51.442;7.540;2023-07-20T00:56:39;15.80;99.90
42201;DHT22;27869;51.442;7.540;2023-07-20T00:59:06;15.70;99.90
42201;DHT22;27869;51.442;7.540;2023-07-20T01:01:34;15.70;99.90
42201;DHT22;27869;51.442;7.540;2023-07-20T01:04:01;15.70;99.90
42201;DHT22;27869;51.442;7.540;2023-07-20T01:06:36;15.70;99.90
42201;DHT22;27869;51.442;7.540;2023-07-20T01:09:13;15.70;99.90
42201;DHT22;27869;51.442;7.540;2023-07-20T01:11:46;15.70;99.90
42201;DHT22;27869;51.442;7.540;2023-07-20T01:14:16;15.70;99.90
42201;DHT22;27869;51.442;7.540;2023-07-20T01:16:44;15.70;99.90
42201;DHT22;27869;51.442;7.540;2023-07-20T01:19:13;15.70;99.90
42201;DHT22;27869;51.442;7.540;2023-07-20T01:21:47;15.70;99.90
42201;DHT22;27869;51.442;7.540;2023-07-20T01:27:41;15.70;99.90
42201;DHT22;27869;51.442;7.540;2023-07-20T01:33:12;15.70;99.90
42201;DHT22;27869;51.442;7.540;2023-07-20T01:35:41;15.70;99.90
42201;DHT22;27869;51.442;7.540;2023-07-20T01:38:11;15.70;99.90
42201;DHT22;27869;51.442;7.540;2023-07-20T01:40:39;15.60;99.90
42201;DHT22;27869;51.442;7.540;2023-07-20T01:43:06;15.60;99.90
42201;DHT22;27869;51.442;7.540;2023-07-20T01:45:33;15.60;99.90
42201;DHT22;27869;51.442;7.540;2023-07-20T01:48:00;15.60;99.90
42201;DHT22;27869;51.442;7.540;2023-07-20T01:50:28;15.50;99.90
42201;DHT22;27869;51.442;7.540;2023-07-20T01:52:55;15.50;99.90
42201;DHT22;27869;51.442;7.540;2023-07-20T01:55:22;15.50;99.90
42201;DHT22;27869;51.442;7.540;2023-07-20T01:57:48;15.50;99.90
42201;DHT22;27869;51.442;7.540;2023-07-20T02:00:16;15.50;99.90
42201;DHT22;27869;51.442;7.540;2023-07-20T02:02:44;15.40;99.90
42201;DHT22;27869;51.442;7.540;2023-07-20T02:05:11;15.40;99.90
42201;DHT22;27869;51.442;7.540;2023-07-20T02:07:39;15.40;99.90
42201;DHT22;27869;51.442;7.540;2023-07-20T02:10:07;15.40;99.90
42201;DHT22;27869;51.442;7.540;2023-07-20T02:12:33;15.40;99.90
42201;DHT22;27869;51.442;7.540;2023-07-20T02:15:01;15.40;99.90
42201;DHT22;27869;51.442;7.540;2023-07-20T02:17:28;15.40;99.90
42201;DHT22;27869;51.442;7.540;2023-07-20T02:19:56;15.40;99.90
42201;DHT22;27869;51.442;7.540;2023-07-20T02:22:23;15.40;99.90
42201;DHT22;27869;51.442;7.540;2023-07-20T02:24:51;15.40;99.90
42201;DHT22;27869;51.442;7.540;2023-07-20T02:27:18;15.30;99.90
42201;DHT22;27869;51.442;7.540;2023-07-20T02:29:45;15.30;99.90
42201;DHT22;27869;51.442;7.540;2023-07-20T02:32:11;15.30;99.90
42201;DHT22;27869;51.442;7.540;2023-07-20T02:34:38;15.20;99.90
42201;DHT22;27869;51.442;7.540;2023-07-20T02:37:05;15.20;99.90
42201;DHT22;27869;51.442;7.540;2023-07-20T02:39:32;15.20;99.90
42201;DHT22;27869;51.442;7.540;2023-07-20T02:42:00;15.20;99.90
42201;DHT22;27869;51.442;7.540;2023-07-20T02:44:27;15.20;99.90
42201;DHT22;27869;51.442;7.540;2023-07-20T02:46:54;15.20;99.90
42201;DHT22;27869;51.442;7.540;2023-07-20T02:49:21;15.20;99.90
42201;DHT22;27869;51.442;7.540;2023-07-20T02:51:48;15.20;99.90
42201;DHT22;27869;51.442;7.540;2023-07-20T02:54:15;15.20;99.90
42201;DHT22;27869;51.442;7.540;2023-07-20T02:56:42;15.10;99.90
42201;DHT22;27869;51.442;7.540;2023-07-20T02:59:10;15.20;99.90
42201;DHT22;27869;51.442;7.540;2023-07-20T03:01:37;15.20;99.90
42201;DHT22;27869;51.442;7.540;2023-07-20T03:04:04;15.20;99.90
42201;DHT22;27869;51.442;7.540;2023-07-20T03:06:30;15.20;99.90
42201;DHT22;27869;51.442;7.540;2023-07-20T03:09:01;15.20;99.90
42201;DHT22;27869;51.442;7.540;2023-07-20T03:11:29;15.20;99.90
42201;DHT22;27869;51.442;7.540;2023-07-20T03:13:56;15.20;99.90
42201;DHT22;27869;51.442;7.540;2023-07-20T03:16:24;15.30;99.90
42201;DHT22;27869;51.442;7.540;2023-07-20T03:18:51;15.20;99.90
42201;DHT22;27869;51.442;7.540;2023-07-20T03:21:18;15.30;99.90
42201;DHT22;27869;51.442;7.540;2023-07-20T03:23:45;15.20;99.90
42201;DHT22;27869;51.442;7.540;2023-07-20T03:26:12;15.20;99.90
42201;DHT22;27869;51.442;7.540;2023-07-20T03:28:39;15.20;99.90
42201;DHT22;27869;51.442;7.540;2023-07-20T03:31:06;15.20;99.90
42201;DHT22;27869;51.442;7.540;2023-07-20T03:33:34;15.20;99.90
42201;DHT22;27869;51.442;7.540;2023-07-20T03:36:01;15.20;99.90
42201;DHT22;27869;51.442;7.540;2023-07-20T03:38:28;15.20;99.90
42201;DHT22;27869;51.442;7.540;2023-07-20T03:40:56;15.20;99.90
42201;DHT22;27869;51.442;7.540;2023-07-20T03:43:24;15.20;99.90
42201;DHT22;27869;51.442;7.540;2023-07-20T03:45:51;15.20;99.90
42201;DHT22;27869;51.442;7.540;2023-07-20T03:48:19;15.20;99.90
42201;DHT22;27869;51.442;7.540;2023-07-20T03:50:49;15.20;99.90
42201;DHT22;27869;51.442;7.540;2023-07-20T03:53:17;15.20;99.90
42201;DHT22;27869;51.442;7.540;2023-07-20T03:55:45;15.20;99.90
42201;DHT22;27869;51.442;7.540;2023-07-20T03:58:12;15.10;99.90
42201;DHT22;27869;51.442;7.540;2023-07-20T04:00:39;15.20;99.90
42201;DHT22;27869;51.442;7.540;2023-07-20T04:03:06;15.20;99.90
42201;DHT22;27869;51.442;7.540;2023-07-20T04:05:33;15.10;99.90
42201;DHT22;27869;51.442;7.540;2023-07-20T04:08:01;15.20;99.90
42201;DHT22;27869;51.442;7.540;2023-07-20T04:10:28;15.10;99.90
42201;DHT22;27869;51.442;7.540;2023-07-20T04:12:55;15.20;99.90
42201;DHT22;27869;51.442;7.540;2023-07-20T04:15:22;15.20;99.90
42201;DHT22;27869;51.442;7.540;2023-07-20T04:17:49;15.20;99.90
42201;DHT22;27869;51.442;7.540;2023-07-20T04:20:16;15.20;99.90
42201;DHT22;27869;51.442;7.540;2023-07-20T04:22:43;15.20;99.90
42201;DHT22;27869;51.442;7.540;2023-07-20T04:25:11;15.20;99.90
42201;DHT22;27869;51.442;7.540;2023-07-20T04:27:38;15.20;99.90
42201;DHT22;27869;51.442;7.540;2023-07-20T04:30:07;15.20;99.90
42201;DHT22;27869;51.442;7.540;2023-07-20T04:32:34;15.20;99.90
42201;DHT22;27869;51.442;7.540;2023-07-20T04:35:01;15.20;99.90
42201;DHT22;27869;51.442;7.540;2023-07-20T04:37:28;15.20;99.90
42201;DHT22;27869;51.442;7.540;2023-07-20T04:39:55;15.20;99.90
42201;DHT22;27869;51.442;7.540;2023-07-20T04:42:23;15.20;99.90
42201;DHT22;27869;51.442;7.540;2023-07-20T04:44:50;15.20;99.90
42201;DHT22;27869;51.442;7.540;2023-07-20T04:47:17;15.20;99.90
42201;DHT22;27869;51.442;7.540;2023-07-20T04:49:43;15.30;99.90
42201;DHT22;27869;51.442;7.540;2023-07-20T04:52:10;15.30;99.90
42201;DHT22;27869;51.442;7.540;2023-07-20T04:54:37;15.30;99.90
42201;DHT22;27869;51.442;7.540;2023-07-20T04:57:11;15.30;99.90
42201;DHT22;27869;51.442;7.540;2023-07-20T04:59:39;15.30;99.90
42201;DHT22;27869;51.442;7.540;2023-07-20T05:02:06;15.30;99.90
42201;DHT22;27869;51.442;7.540;2023-07-20T05:04:33;15.40;99.90
42201;DHT22;27869;51.442;7.540;2023-07-20T05:07:00;15.30;99.90
42201;DHT22;27869;51.442;7.540;2023-07-20T05:09:27;15.30;99.90
42201;DHT22;27869;51.442;7.540;2023-07-20T05:11:53;15.40;99.90
42201;DHT22;27869;51.442;7.540;2023-07-20T05:14:20;15.30;99.90
42201;DHT22;27869;51.442;7.540;2023-07-20T05:16:49;15.30;99.90
42201;DHT22;27869;51.442;7.540;2023-07-20T05:19:15;15.40;99.90
42201;DHT22;27869;51.442;7.540;2023-07-20T05:21:42;15.40;99.90
42201;DHT22;27869;51.442;7.540;2023-07-20T05:24:09;15.50;99.90
42201;DHT22;27869;51.442;7.540;2023-07-20T05:26:36;15.50;99.90
42201;DHT22;27869;51.442;7.540;2023-07-20T05:29:03;15.50;99.90
42201;DHT22;27869;51.442;7.540;2023-07-20T05:31:30;15.50;99.90
42201;DHT22;27869;51.442;7.540;2023-07-20T05:33:58;15.50;99.90
42201;DHT22;27869;51.442;7.540;2023-07-20T05:36:25;15.50;99.90
42201;DHT22;27869;51.442;7.540;2023-07-20T05:38:52;15.50;99.90
42201;DHT22;27869;51.442;7.540;2023-07-20T05:41:19;15.50;99.90
42201;DHT22;27869;51.442;7.540;2023-07-20T05:43:46;15.50;99.90
42201;DHT22;27869;51.442;7.540;2023-07-20T05:46:13;15.50;99.90
42201;DHT22;27869;51.442;7.540;2023-07-20T05:48:40;15.50;99.90
42201;DHT22;27869;51.442;7.540;2023-07-20T05:51:08;15.50;99.90
42201;DHT22;27869;51.442;7.540;2023-07-20T05:53:35;15.50;99.90
42201;DHT22;27869;51.442;7.540;2023-07-20T05:56:04;15.50;99.90
42201;DHT22;27869;51.442;7.540;2023-07-20T05:58:31;15.50;99.90
42201;DHT22;27869;51.442;7.540;2023-07-20T06:00:58;15.60;99.90
42201;DHT22;27869;51.442;7.540;2023-07-20T06:03:25;15.60;99.90
42201;DHT22;27869;51.442;7.540;2023-07-20T06:05:51;15.60;99.90
42201;DHT22;27869;51.442;7.540;2023-07-20T06:08:20;15.60;99.90
42201;DHT22;27869;51.442;7.540;2023-07-20T06:10:50;15.60;99.90
42201;DHT22;27869;51.442;7.540;2023-07-20T06:13:17;15.60;99.90
42201;DHT22;27869;51.442;7.540;2023-07-20T06:15:44;15.60;99.90
42201;DHT22;27869;51.442;7.540;2023-07-20T06:18:11;15.60;99.90
42201;DHT22;27869;51.442;7.540;2023-07-20T06:20:38;15.70;99.90
42201;DHT22;27869;51.442;7.540;2023-07-20T06:23:05;15.70;99.90
42201;DHT22;27869;51.442;7.540;2023-07-20T06:25:33;15.70;99.90
42201;DHT22;27869;51.442;7.540;2023-07-20T06:28:00;15.70;99.90
42201;DHT22;27869;51.442;7.540;2023-07-20T06:30:26;15.80;99.90
42201;DHT22;27869;51.442;7.540;2023-07-20T06:32:53;15.80;99.90
42201;DHT22;27869;51.442;7.540;2023-07-20T06:35:20;15.80;99.90
42201;DHT22;27869;51.442;7.540;2023-07-20T06:37:47;15.80;99.90
42201;DHT22;27869;51.442;7.540;2023-07-20T06:40:14;15.80;99.90
42201;DHT22;27869;51.442;7.540;2023-07-20T06:42:42;15.90;99.90
42201;DHT22;27869;51.442;7.540;2023-07-20T06:45:09;15.90;99.90
42201;DHT22;27869;51.442;7.540;2023-07-20T06:47:38;15.90;99.90
42201;DHT22;27869;51.442;7.540;2023-07-20T06:50:06;15.90;99.90
42201;DHT22;27869;51.442;7.540;2023-07-20T06:52:33;15.90;99.90
42201;DHT22;27869;51.442;7.540;2023-07-20T06:55:00;15.90;99.90
42201;DHT22;27869;51.442;7.540;2023-07-20T06:57:27;15.90;99.90
42201;DHT22;27869;51.442;7.540;2023-07-20T06:59:55;16.00;99.90
42201;DHT22;27869;51.442;7.540;2023-07-20T07:02:22;16.00;99.90
42201;DHT22;27869;51.442;7.540;2023-07-20T07:04:48;16.00;99.90
42201;DHT22;27869;51.442;7.540;2023-07-20T07:07:15;16.10;99.90
42201;DHT22;27869;51.442;7.540;2023-07-20T07:09:42;16.20;99.90
42201;DHT22;27869;51.442;7.540;2023-07-20T07:12:09;16.40;99.90
42201;DHT22;27869;51.442;7.540;2023-07-20T07:14:36;16.50;99.90
42201;DHT22;27869;51.442;7.540;2023-07-20T07:17:04;16.60;99.90
42201;DHT22;27869;51.442;7.540;2023-07-20T07:19:31;16.70;99.90
42201;DHT22;27869;51.442;7.540;2023-07-20T07:21:58;16.80;99.90
42201;DHT22;27869;51.442;7.540;2023-07-20T07:24:25;16.80;99.90
42201;DHT22;27869;51.442;7.540;2023-07-20T07:26:53;16.80;99.90
42201;DHT22;27869;51.442;7.540;2023-07-20T07:29:20;16.80;99.90
42201;DHT22;27869;51.442;7.540;2023-07-20T07:31:47;16.90;99.90
42201;DHT22;27869;51.442;7.540;2023-07-20T07:34:15;17.00;99.90
42201;DHT22;27869;51.442;7.540;2023-07-20T07:36:42;17.10;99.90
42201;DHT22;27869;51.442;7.540;2023-07-20T07:39:09;17.10;99.90
42201;DHT22;27869;51.442;7.540;2023-07-20T07:41:36;17.10;99.90
42201;DHT22;27869;51.442;7.540;2023-07-20T07:44:03;17.20;99.90
42201;DHT22;27869;51.442;7.540;2023-07-20T07:46:30;17.30;99.90
42201;DHT22;27869;51.442;7.540;2023-07-20T07:48:57;17.30;99.90
42201;DHT22;27869;51.442;7.540;2023-07-20T07:51:25;17.30;99.90
42201;DHT22;27869;51.442;7.540;2023-07-20T07:53:53;17.30;99.90
42201;DHT22;27869;51.442;7.540;2023-07-20T07:56:20;17.30;99.90
42201;DHT22;27869;51.442;7.540;2023-07-20T07:58:48;17.30;99.90
42201;DHT22;27869;51.442;7.540;2023-07-20T08:01:15;17.30;99.90
42201;DHT22;27869;51.442;7.540;2023-07-20T08:03:42;17.30;99.90
42201;DHT22;27869;51.442;7.540;2023-07-20T08:06:11;17.30;99.90
42201;DHT22;27869;51.442;7.540;2023-07-20T08:08:39;17.30;99.90
42201;DHT22;27869;51.442;7.540;2023-07-20T08:11:06;17.40;99.90
42201;DHT22;27869;51.442;7.540;2023-07-20T08:13:32;17.50;99.90
42201;DHT22;27869;51.442;7.540;2023-07-20T08:16:01;17.50;99.90
42201;DHT22;27869;51.442;7.540;2023-07-20T08:18:28;17.50;99.90
42201;DHT22;27869;51.442;7.540;2023-07-20T08:20:56;17.50;99.90
42201;DHT22;27869;51.442;7.540;2023-07-20T08:23:23;17.50;99.90
42201;DHT22;27869;51.442;7.540;2023-07-20T08:25:51;17.50;99.90
42201;DHT22;27869;51.442;7.540;2023-07-20T08:28:18;17.60;99.90
42201;DHT22;27869;51.442;7.540;2023-07-20T08:30:46;17.70;99.90
42201;DHT22;27869;51.442;7.540;2023-07-20T08:33:15;17.90;99.90
42201;DHT22;27869;51.442;7.540;2023-07-20T08:35:43;18.10;99.90
42201;DHT22;27869;51.442;7.540;2023-07-20T08:38:10;18.30;99.90
42201;DHT22;27869;51.442;7.540;2023-07-20T08:40:40;18.40;99.90
42201;DHT22;27869;51.442;7.540;2023-07-20T08:43:09;18.60;99.90
42201;DHT22;27869;51.442;7.540;2023-07-20T08:45:39;18.70;99.90
42201;DHT22;27869;51.442;7.540;2023-07-20T08:48:07;18.90;99.90
42201;DHT22;27869;51.442;7.540;2023-07-20T08:50:34;19.10;99.90
42201;DHT22;27869;51.442;7.540;2023-07-20T08:53:02;19.10;99.90
42201;DHT22;27869;51.442;7.540;2023-07-20T08:55:30;19.20;99.90
42201;DHT22;27869;51.442;7.540;2023-07-20T08:57:58;19.30;99.90
42201;DHT22;27869;51.442;7.540;2023-07-20T09:00:27;19.50;99.90
42201;DHT22;27869;51.442;7.540;2023-07-20T09:02:54;19.70;99.90
42201;DHT22;27869;51.442;7.540;2023-07-20T09:05:23;19.80;99.90
42201;DHT22;27869;51.442;7.540;2023-07-20T09:07:51;19.80;99.90
42201;DHT22;27869;51.442;7.540;2023-07-20T09:10:21;19.90;99.90
42201;DHT22;27869;51.442;7.540;2023-07-20T09:12:47;19.90;99.90
42201;DHT22;27869;51.442;7.540;2023-07-20T09:15:15;19.90;99.90
42201;DHT22;27869;51.442;7.540;2023-07-20T09:17:47;19.90;99.90
42201;DHT22;27869;51.442;7.540;2023-07-20T09:20:15;20.10;99.90
42201;DHT22;27869;51.442;7.540;2023-07-20T09:22:42;20.30;99.90
42201;DHT22;27869;51.442;7.540;2023-07-20T09:25:12;20.40;99.90
42201;DHT22;27869;51.442;7.540;2023-07-20T09:27:41;20.50;99.90
42201;DHT22;27869;51.442;7.540;2023-07-20T09:30:08;20.60;99.90
42201;DHT22;27869;51.442;7.540;2023-07-20T09:32:39;20.70;99.90
42201;DHT22;27869;51.442;7.540;2023-07-20T09:35:12;20.70;99.90
42201;DHT22;27869;51.442;7.540;2023-07-20T09:37:41;20.80;99.90
42201;DHT22;27869;51.442;7.540;2023-07-20T09:40:09;21.00;99.90
42201;DHT22;27869;51.442;7.540;2023-07-20T09:42:37;21.20;99.90
42201;DHT22;27869;51.442;7.540;2023-07-20T09:45:07;21.30;99.90
42201;DHT22;27869;51.442;7.540;2023-07-20T09:47:36;21.40;99.90
42201;DHT22;27869;51.442;7.540;2023-07-20T09:50:04;21.50;99.90
42201;DHT22;27869;51.442;7.540;2023-07-20T09:52:38;21.60;99.90
42201;DHT22;27869;51.442;7.540;2023-07-20T09:55:07;21.80;99.90
42201;DHT22;27869;51.442;7.540;2023-07-20T09:57:35;21.80;99.90
42201;DHT22;27869;51.442;7.540;2023-07-20T10:00:03;22.00;99.90
42201;DHT22;27869;51.442;7.540;2023-07-20T10:02:34;22.10;99.90
42201;DHT22;27869;51.442;7.540;2023-07-20T10:05:04;22.20;99.90
42201;DHT22;27869;51.442;7.540;2023-07-20T10:07:39;22.40;99.90
42201;DHT22;27869;51.442;7.540;2023-07-20T10:10:07;22.50;99.90
42201;DHT22;27869;51.442;7.540;2023-07-20T10:12:37;22.40;99.90
42201;DHT22;27869;51.442;7.540;2023-07-20T10:15:11;22.30;99.90
42201;DHT22;27869;51.442;7.540;2023-07-20T10:17:48;22.10;99.90
42201;DHT22;27869;51.442;7.540;2023-07-20T10:20:17;22.00;99.90
42201;DHT22;27869;51.442;7.540;2023-07-20T10:22:48;21.90;99.90
42201;DHT22;27869;51.442;7.540;2023-07-20T10:25:17;22.00;99.90
42201;DHT22;27869;51.442;7.540;2023-07-20T10:27:45;22.00;99.90
42201;DHT22;27869;51.442;7.540;2023-07-20T10:30:13;22.00;99.90
42201;DHT22;27869;51.442;7.540;2023-07-20T10:32:41;22.20;99.90
42201;DHT22;27869;51.442;7.540;2023-07-20T10:35:13;22.40;99.90
42201;DHT22;27869;51.442;7.540;2023-07-20T10:37:49;22.70;99.90
42201;DHT22;27869;51.442;7.540;2023-07-20T10:40:32;23.00;99.90
42201;DHT22;27869;51.442;7.540;2023-07-20T10:43:04;23.20;98.70
42201;DHT22;27869;51.442;7.540;2023-07-20T10:45:39;23.30;99.00
42201;DHT22;27869;51.442;7.540;2023-07-20T10:48:13;23.40;99.90
42201;DHT22;27869;51.442;7.540;2023-07-20T10:50:41;23.50;98.00
42201;DHT22;27869;51.442;7.540;2023-07-20T10:53:14;23.60;98.70
42201;DHT22;27869;51.442;7.540;2023-07-20T10:55:41;23.60;96.20
42201;DHT22;27869;51.442;7.540;2023-07-20T10:58:10;23.50;95.30
42201;DHT22;27869;51.442;7.540;2023-07-20T11:00:38;23.40;96.50
42201;DHT22;27869;51.442;7.540;2023-07-20T11:03:05;23.50;97.50
42201;DHT22;27869;51.442;7.540;2023-07-20T11:05:36;23.70;97.20
42201;DHT22;27869;51.442;7.540;2023-07-20T11:08:06;23.70;96.40
42201;DHT22;27869;51.442;7.540;2023-07-20T11:10:34;23.70;96.80
42201;DHT22;27869;51.442;7.540;2023-07-20T11:13:20;23.50;96.60
42201;DHT22;27869;51.442;7.540;2023-07-20T11:16:01;23.30;94.10
42201;DHT22;27869;51.442;7.540;2023-07-20T11:18:28;23.20;97.30
42201;DHT22;27869;51.442;7.540;2023-07-20T11:20:56;23.20;96.70
42201;DHT22;27869;51.442;7.540;2023-07-20T11:23:23;23.20;97.30
42201;DHT22;27869;51.442;7.540;2023-07-20T11:25:51;23.20;97.00
42201;DHT22;27869;51.442;7.540;2023-07-20T11:28:18;23.10;97.40
42201;DHT22;27869;51.442;7.540;2023-07-20T11:30:45;23.10;96.80
42201;DHT22;27869;51.442;7.540;2023-07-20T11:33:16;23.10;97.00
42201;DHT22;27869;51.442;7.540;2023-07-20T11:35:44;23.20;97.50
42201;DHT22;27869;51.442;7.540;2023-07-20T11:38:12;23.40;97.80
42201;DHT22;27869;51.442;7.540;2023-07-20T11:40:43;23.60;97.40
42201;DHT22;27869;51.442;7.540;2023-07-20T11:43:12;23.60;96.60
42201;DHT22;27869;51.442;7.540;2023-07-20T11:45:39;23.50;96.00
42201;DHT22;27869;51.442;7.540;2023-07-20T11:48:06;23.40;96.40
42201;DHT22;27869;51.442;7.540;2023-07-20T11:50:38;23.50;96.50
42201;DHT22;27869;51.442;7.540;2023-07-20T11:53:06;23.40;94.80
42201;DHT22;27869;51.442;7.540;2023-07-20T11:55:34;23.40;95.90
42201;DHT22;27869;51.442;7.540;2023-07-20T11:58:02;23.20;95.70
42201;DHT22;27869;51.442;7.540;2023-07-20T12:00:30;23.30;95.90
42201;DHT22;27869;51.442;7.540;2023-07-20T12:02:58;23.20;96.20
42201;DHT22;27869;51.442;7.540;2023-07-20T12:05:24;23.20;96.00
42201;DHT22;27869;51.442;7.540;2023-07-20T12:07:52;23.10;95.40
42201;DHT22;27869;51.442;7.540;2023-07-20T12:10:24;23.00;95.60
42201;DHT22;27869;51.442;7.540;2023-07-20T12:12:52;22.90;95.40
42201;DHT22;27869;51.442;7.540;2023-07-20T12:15:21;22.80;95.20
42201;DHT22;27869;51.442;7.540;2023-07-20T12:17:51;22.70;95.00
42201;DHT22;27869;51.442;7.540;2023-07-20T12:20:25;22.90;95.30
42201;DHT22;27869;51.442;7.540;2023-07-20T12:22:52;22.80;94.40
42201;DHT22;27869;51.442;7.540;2023-07-20T12:25:19;22.70;94.10
42201;DHT22;27869;51.442;7.540;2023-07-20T12:27:47;22.70;95.00
42201;DHT22;27869;51.442;7.540;2023-07-20T12:30:14;22.70;94.00
42201;DHT22;27869;51.442;7.540;2023-07-20T12:32:41;22.60;95.10
42201;DHT22;27869;51.442;7.540;2023-07-20T12:35:09;22.60;93.70
42201;DHT22;27869;51.442;7.540;2023-07-20T12:37:37;22.50;93.80
42201;DHT22;27869;51.442;7.540;2023-07-20T12:40:04;22.40;94.00
42201;DHT22;27869;51.442;7.540;2023-07-20T12:42:36;22.40;93.80
42201;DHT22;27869;51.442;7.540;2023-07-20T12:45:05;22.50;93.90
42201;DHT22;27869;51.442;7.540;2023-07-20T12:47:32;22.50;93.50
42201;DHT22;27869;51.442;7.540;2023-07-20T12:49:59;22.50;93.60
42201;DHT22;27869;51.442;7.540;2023-07-20T12:52:27;22.50;93.50
42201;DHT22;27869;51.442;7.540;2023-07-20T12:54:54;22.50;94.00
42201;DHT22;27869;51.442;7.540;2023-07-20T12:57:21;22.50;94.10
42201;DHT22;27869;51.442;7.540;2023-07-20T12:59:48;22.50;93.60
42201;DHT22;27869;51.442;7.540;2023-07-20T13:02:15;22.40;94.10
42201;DHT22;27869;51.442;7.540;2023-07-20T13:04:42;22.40;94.30
42201;DHT22;27869;51.442;7.540;2023-07-20T13:07:10;22.50;94.80
42201;DHT22;27869;51.442;7.540;2023-07-20T13:09:39;22.50;93.50
42201;DHT22;27869;51.442;7.540;2023-07-20T13:12:07;22.40;92.90
42201;DHT22;27869;51.442;7.540;2023-07-20T13:14:34;22.40;93.20
42201;DHT22;27869;51.442;7.540;2023-07-20T13:17:00;22.40;93.50
42201;DHT22;27869;51.442;7.540;2023-07-20T13:19:27;22.40;92.60
42201;DHT22;27869;51.442;7.540;2023-07-20T13:21:55;22.40;93.10
42201;DHT22;27869;51.442;7.540;2023-07-20T13:24:21;22.40;92.10
42201;DHT22;27869;51.442;7.540;2023-07-20T13:26:50;22.30;91.90
42201;DHT22;27869;51.442;7.540;2023-07-20T13:29:17;22.30;92.00
42201;DHT22;27869;51.442;7.540;2023-07-20T13:31:44;22.20;92.90
42201;DHT22;27869;51.442;7.540;2023-07-20T13:34:11;22.20;93.50
42201;DHT22;27869;51.442;7.540;2023-07-20T13:36:41;22.10;92.40
42201;DHT22;27869;51.442;7.540;2023-07-20T13:39:08;22.10;92.70
42201;DHT22;27869;51.442;7.540;2023-07-20T13:41:35;22.10;93.10
42201;DHT22;27869;51.442;7.540;2023-07-20T13:44:03;22.10;93.10
42201;DHT22;27869;51.442;7.540;2023-07-20T13:46:32;22.10;93.10
42201;DHT22;27869;51.442;7.540;2023-07-20T13:48:59;22.10;93.20
42201;DHT22;27869;51.442;7.540;2023-07-20T13:51:26;22.10;93.10
42201;DHT22;27869;51.442;7.540;2023-07-20T13:53:53;22.10;92.60
42201;DHT22;27869;51.442;7.540;2023-07-20T13:56:20;22.00;92.10
42201;DHT22;27869;51.442;7.540;2023-07-20T13:58:47;22.00;93.80
42201;DHT22;27869;51.442;7.540;2023-07-20T14:01:15;21.90;93.40
42201;DHT22;27869;51.442;7.540;2023-07-20T14:03:43;21.90;92.50
42201;DHT22;27869;51.442;7.540;2023-07-20T14:06:10;21.80;92.50
42201;DHT22;27869;51.442;7.540;2023-07-20T14:08:38;21.70;92.80
42201;DHT22;27869;51.442;7.540;2023-07-20T14:11:06;21.70;92.40
42201;DHT22;27869;51.442;7.540;2023-07-20T14:13:33;21.70;93.20
42201;DHT22;27869;51.442;7.540;2023-07-20T14:16:00;21.60;94.50
42201;DHT22;27869;51.442;7.540;2023-07-20T14:18:28;21.60;93.40
42201;DHT22;27869;51.442;7.540;2023-07-20T14:20:55;21.60;94.00
42201;DHT22;27869;51.442;7.540;2023-07-20T14:23:22;21.60;94.30
42201;DHT22;27869;51.442;7.540;2023-07-20T14:25:49;21.50;94.90
42201;DHT22;27869;51.442;7.540;2023-07-20T14:28:15;21.50;95.60
42201;DHT22;27869;51.442;7.540;2023-07-20T14:30:42;21.50;94.40
42201;DHT22;27869;51.442;7.540;2023-07-20T14:33:09;21.50;93.80
42201;DHT22;27869;51.442;7.540;2023-07-20T14:35:37;21.50;93.80
42201;DHT22;27869;51.442;7.540;2023-07-20T14:38:04;21.60;94.60
42201;DHT22;27869;51.442;7.540;2023-07-20T14:40:31;21.70;94.00
42201;DHT22;27869;51.442;7.540;2023-07-20T14:42:58;21.70;93.60
42201;DHT22;27869;51.442;7.540;2023-07-20T14:45:26;21.70;92.80
42201;DHT22;27869;51.442;7.540;2023-07-20T14:47:53;21.70;93.00
42201;DHT22;27869;51.442;7.540;2023-07-20T14:50:20;21.80;93.00
42201;DHT22;27869;51.442;7.540;2023-07-20T14:52:48;21.80;92.60
42201;DHT22;27869;51.442;7.540;2023-07-20T14:55:15;21.80;92.50
42201;DHT22;27869;51.442;7.540;2023-07-20T14:57:42;21.80;91.90
42201;DHT22;27869;51.442;7.540;2023-07-20T15:00:10;21.80;92.80
42201;DHT22;27869;51.442;7.540;2023-07-20T15:02:37;21.90;93.10
42201;DHT22;27869;51.442;7.540;2023-07-20T15:05:07;22.00;93.00
42201;DHT22;27869;51.442;7.540;2023-07-20T15:07:34;22.00;92.30
42201;DHT22;27869;51.442;7.540;2023-07-20T15:10:03;22.00;92.30
42201;DHT22;27869;51.442;7.540;2023-07-20T15:12:30;22.00;93.00
42201;DHT22;27869;51.442;7.540;2023-07-20T15:15:04;22.10;92.70
42201;DHT22;27869;51.442;7.540;2023-07-20T15:17:32;22.10;92.40
42201;DHT22;27869;51.442;7.540;2023-07-20T15:19:59;22.10;92.30
42201;DHT22;27869;51.442;7.540;2023-07-20T15:22:25;22.10;92.70
42201;DHT22;27869;51.442;7.540;2023-07-20T15:24:52;22.00;93.20
42201;DHT22;27869;51.442;7.540;2023-07-20T15:27:20;22.10;93.50
42201;DHT22;27869;51.442;7.540;2023-07-20T15:29:48;22.10;93.80
42201;DHT22;27869;51.442;7.540;2023-07-20T15:32:15;22.10;93.20
42201;DHT22;27869;51.442;7.540;2023-07-20T15:34:42;22.10;93.20
42201;DHT22;27869;51.442;7.540;2023-07-20T15:37:09;22.10;92.50
42201;DHT22;27869;51.442;7.540;2023-07-20T15:39:36;22.10;92.80